sensor_id;sensor_type;location;lat;lon;timestamp;P1;durP1;ratioP1;P2;durP2;ratioP2
60865;SDS011;46701;51.558;-0.448;2022-07-23T00:01:15;4.5;;;1.6;;
60865;SDS011;46701;51.558;-0.448;2022-07-23T00:04:16;3.7;;;1.7;;
60865;SDS011;46701;51.558;-0.448;2022-07-23T00:07:17;3.5;;;1.6;;
60865;SDS011;46701;51.558;-0.448;2022-07-23T00:10:18;2.7;;;1.3;;
60865;SDS011;46701;51.558;-0.448;2022-07-23T00:13:19;3.2;;;1.3;;
60865;SDS011;46701;51.558;-0.448;2022-07-23T00:16:20;3.7;;;1.3;;
60865;SDS011;46701;51.558;-0.448;2022-07-23T00:19:21;3.1;;;1.6;;
60865;SDS011;46701;51.558;-0.448;2022-07-23T00:21:22;4.6;;;1.7;;
60865;SDS011;46701;51.558;-0.448;2022-07-23T00:24:23;4.4;;;1.4;;
60865;SDS011;46701;51.558;-0.448;2022-07-23T00:27:24;4;;;1.3;;
60865;SDS011;46701;51.558;-0.448;2022-07-23T00:30:25;3.3;;;1.1;;
60865;SDS011;46701;51.558;-0.448;2022-07-23T00:33:26;4.5;;;1.5;;
60865;SDS011;46701;51.558;-0.448;2022-07-23T00:36:27;6.4;;;1.6;;
60865;SDS011;46701;51.558;-0.448;2022-07-23T00:39:28;4.6;;;1.7;;
60865;SDS011;46701;51.558;-0.448;2022-07-23T00:42:30;6.6;;;1.7;;
60865;SDS011;46701;51.558;-0.448;2022-07-23T00:45:30;5.4;;;1.4;;
60865;SDS011;46701;51.558;-0.448;2022-07-23T00:48:31;3.9;;;1.5;;
60865;SDS011;46701;51.558;-0.448;2022-07-23T00:51:32;4.1;;;1.5;;
60865;SDS011;46701;51.558;-0.448;2022-07-23T00:54:33;5.6;;;1.5;;
60865;SDS011;46701;51.558;-0.448;2022-07-23T00:57:34;4.4;;;1.7;;
60865;SDS011;46701;51.558;-0.448;2022-07-23T01:00:35;3;;;1.4;;
60865;SDS011;46701;51.558;-0.448;2022-07-23T01:03:36;3.1;;;1.4;;
60865;SDS011;46701;51.558;-0.448;2022-07-23T01:06:37;4.1;;;1.4;;
60865;SDS011;46701;51.558;-0.448;2022-07-23T01:09:38;2.6;;;1.2;;
60865;SDS011;46701;51.558;-0.448;2022-07-23T01:12:39;5.3;;;1.5;;
60865;SDS011;46701;51.558;-0.448;2022-07-23T01:15:40;2.7;;;1.3;;
60865;SDS011;46701;51.558;-0.448;2022-07-23T01:18:41;3.1;;;1.4;;
60865;SDS011;46701;51.558;-0.448;2022-07-23T01:21:43;2.7;;;1.4;;
60865;SDS011;46701;51.558;-0.448;2022-07-23T01:24:43;3.5;;;1.4;;
60865;SDS011;46701;51.558;-0.448;2022-07-23T01:27:44;2.6;;;1.1;;
60865;SDS011;46701;51.558;-0.448;2022-07-23T01:30:45;2.8;;;1.1;;
60865;SDS011;46701;51.558;-0.448;2022-07-23T01:33:46;2.5;;;1.1;;
60865;SDS011;46701;51.558;-0.448;2022-07-23T01:36:47;3.7;;;1.5;;
60865;SDS011;46701;51.558;-0.448;2022-07-23T01:39:48;2.8;;;1.2;;
60865;SDS011;46701;51.558;-0.448;2022-07-23T01:42:49;1.9;;;1.1;;
60865;SDS011;46701;51.558;-0.448;2022-07-23T01:45:50;2.9;;;1.4;;
60865;SDS011;46701;51.558;-0.448;2022-07-23T01:48:51;2.4;;;1.3;;
60865;SDS011;46701;51.558;-0.448;2022-07-23T01:51:52;2.4;;;1;;
60865;SDS011;46701;51.558;-0.448;2022-07-23T01:54:53;2.5;;;1.3;;
60865;SDS011;46701;51.558;-0.448;2022-07-23T01:57:54;1.9;;;1;;
60865;SDS011;46701;51.558;-0.448;2022-07-23T02:00:55;2.5;;;1.2;;
60865;SDS011;46701;51.558;-0.448;2022-07-23T02:03:56;2;;;1.1;;
60865;SDS011;46701;51.558;-0.448;2022-07-23T02:06:57;2.1;;;1.1;;
60865;SDS011;46701;51.558;-0.448;2022-07-23T02:09:58;2.5;;;1.1;;
60865;SDS011;46701;51.558;-0.448;2022-07-23T02:12:59;1.9;;;1.2;;
60865;SDS011;46701;51.558;-0.448;2022-07-23T02:16:00;2.1;;;1.1;;
60865;SDS011;46701;51.558;-0.448;2022-07-23T02:18:00;2.7;;;1.2;;
60865;SDS011;46701;51.558;-0.448;2022-07-23T02:21:01;1.9;;;1.2;;
60865;SDS011;46701;51.558;-0.448;2022-07-23T02:24:02;2;;;1.1;;
60865;SDS011;46701;51.558;-0.448;2022-07-23T02:27:03;1.6;;;0.9;;
60865;SDS011;46701;51.558;-0.448;2022-07-23T02:30:05;3.3;;;1.3;;
60865;SDS011;46701;51.558;-0.448;2022-07-23T02:33:05;2.3;;;1.1;;
60865;SDS011;46701;51.558;-0.448;2022-07-23T02:36:06;2.2;;;1.3;;
60865;SDS011;46701;51.558;-0.448;2022-07-23T02:39:07;2;;;1.1;;
60865;SDS011;46701;51.558;-0.448;2022-07-23T02:42:08;2.1;;;1.2;;
60865;SDS011;46701;51.558;-0.448;2022-07-23T02:45:09;1.6;;;0.9;;
60865;SDS011;46701;51.558;-0.448;2022-07-23T02:48:10;2.5;;;1.2;;
60865;SDS011;46701;51.558;-0.448;2022-07-23T02:51:11;2.1;;;1.2;;
60865;SDS011;46701;51.558;-0.448;2022-07-23T02:54:12;2.5;;;1.2;;
60865;SDS011;46701;51.558;-0.448;2022-07-23T02:57:13;1.8;;;1.2;;
60865;SDS011;46701;51.558;-0.448;2022-07-23T03:00:14;2.2;;;1.1;;
60865;SDS011;46701;51.558;-0.448;2022-07-23T03:03:15;2.3;;;1.2;;
60865;SDS011;46701;51.558;-0.448;2022-07-23T03:06:16;2.1;;;1.2;;
60865;SDS011;46701;51.558;-0.448;2022-07-23T03:09:17;2.6;;;1.3;;
60865;SDS011;46701;51.558;-0.448;2022-07-23T03:12:18;2.5;;;1.2;;
60865;SDS011;46701;51.558;-0.448;2022-07-23T03:15:19;2.1;;;1.2;;
60865;SDS011;46701;51.558;-0.448;2022-07-23T03:18:20;2.2;;;1.1;;
60865;SDS011;46701;51.558;-0.448;2022-07-23T03:21:21;3.3;;;1.2;;
60865;SDS011;46701;51.558;-0.448;2022-07-23T03:24:22;3.5;;;1.3;;
60865;SDS011;46701;51.558;-0.448;2022-07-23T03:27:24;2.1;;;1.1;;
60865;SDS011;46701;51.558;-0.448;2022-07-23T03:30:24;2.3;;;1.1;;
60865;SDS011;46701;51.558;-0.448;2022-07-23T03:33:25;1.8;;;1.1;;
60865;SDS011;46701;51.558;-0.448;2022-07-23T03:36:26;1.8;;;1.2;;
60865;SDS011;46701;51.558;-0.448;2022-07-23T03:39:27;1.7;;;1;;
60865;SDS011;46701;51.558;-0.448;2022-07-23T03:42:28;1.8;;;0.9;;
60865;SDS011;46701;51.558;-0.448;2022-07-23T03:45:29;2;;;1.1;;
60865;SDS011;46701;51.558;-0.448;2022-07-23T03:48:30;2.3;;;1.1;;
60865;SDS011;46701;51.558;-0.448;2022-07-23T03:51:31;2.1;;;1.2;;
60865;SDS011;46701;51.558;-0.448;2022-07-23T03:54:32;2.1;;;1;;
60865;SDS011;46701;51.558;-0.448;2022-07-23T03:57:33;2.1;;;1.1;;
60865;SDS011;46701;51.558;-0.448;2022-07-23T04:00:34;2.2;;;1;;
60865;SDS011;46701;51.558;-0.448;2022-07-23T04:03:35;2.1;;;1.2;;
60865;SDS011;46701;51.558;-0.448;2022-07-23T04:06:36;2.5;;;1;;
60865;SDS011;46701;51.558;-0.448;2022-07-23T04:09:37;1.9;;;1;;
60865;SDS011;46701;51.558;-0.448;2022-07-23T04:12:38;2.9;;;1.1;;
60865;SDS011;46701;51.558;-0.448;2022-07-23T04:14:39;2.3;;;1.1;;
60865;SDS011;46701;51.558;-0.448;2022-07-23T04:17:40;2.4;;;1;;
60865;SDS011;46701;51.558;-0.448;2022-07-23T04:20:41;1.7;;;0.9;;
60865;SDS011;46701;51.558;-0.448;2022-07-23T04:23:42;2;;;1.1;;
60865;SDS011;46701;51.558;-0.448;2022-07-23T04:26:43;2;;;1;;
60865;SDS011;46701;51.558;-0.448;2022-07-23T04:29:44;2.4;;;1.2;;
60865;SDS011;46701;51.558;-0.448;2022-07-23T04:32:45;1.5;;;1;;
60865;SDS011;46701;51.558;-0.448;2022-07-23T04:35:46;3.1;;;1;;
60865;SDS011;46701;51.558;-0.448;2022-07-23T04:38:47;1.9;;;1;;
60865;SDS011;46701;51.558;-0.448;2022-07-23T04:41:48;2.6;;;1.1;;
60865;SDS011;46701;51.558;-0.448;2022-07-23T04:44:49;2.2;;;1;;
60865;SDS011;46701;51.558;-0.448;2022-07-23T04:47:50;1.9;;;1.1;;
60865;SDS011;46701;51.558;-0.448;2022-07-23T04:50:51;2.6;;;1.1;;
60865;SDS011;46701;51.558;-0.448;2022-07-23T04:53:52;3.4;;;1.2;;
60865;SDS011;46701;51.558;-0.448;2022-07-23T04:56:53;2.3;;;1.2;;
60865;SDS011;46701;51.558;-0.448;2022-07-23T04:59:54;3.3;;;1.2;;
60865;SDS011;46701;51.558;-0.448;2022-07-23T05:02:55;2;;;1.2;;
60865;SDS011;46701;51.558;-0.448;2022-07-23T05:05:56;3.5;;;1;;
60865;SDS011;46701;51.558;-0.448;2022-07-23T05:08:57;1.6;;;1.1;;
60865;SDS011;46701;51.558;-0.448;2022-07-23T05:11:58;1.7;;;1.1;;
60865;SDS011;46701;51.558;-0.448;2022-07-23T05:14:59;2.1;;;1.1;;
60865;SDS011;46701;51.558;-0.448;2022-07-23T05:18:00;2.5;;;1.2;;
60865;SDS011;46701;51.558;-0.448;2022-07-23T05:21:01;2.6;;;1.3;;
60865;SDS011;46701;51.558;-0.448;2022-07-23T05:24:02;2;;;1.1;;
60865;SDS011;46701;51.558;-0.448;2022-07-23T05:27:03;1.6;;;1;;
60865;SDS011;46701;51.558;-0.448;2022-07-23T05:30:04;2.2;;;1.1;;
60865;SDS011;46701;51.558;-0.448;2022-07-23T05:33:05;2.6;;;1.2;;
60865;SDS011;46701;51.558;-0.448;2022-07-23T05:36:06;2;;;1.1;;
60865;SDS011;46701;51.558;-0.448;2022-07-23T05:39:07;2.4;;;1.2;;
60865;SDS011;46701;51.558;-0.448;2022-07-23T05:42:08;1.5;;;1;;
60865;SDS011;46701;51.558;-0.448;2022-07-23T05:45:09;2.1;;;1.3;;
60865;SDS011;46701;51.558;-0.448;2022-07-23T05:48:10;2.3;;;1.1;;
60865;SDS011;46701;51.558;-0.448;2022-07-23T05:51:11;2.6;;;1.3;;
60865;SDS011;46701;51.558;-0.448;2022-07-23T05:54:12;2.6;;;1.2;;
60865;SDS011;46701;51.558;-0.448;2022-07-23T05:57:13;2;;;1.3;;
60865;SDS011;46701;51.558;-0.448;2022-07-23T06:00:14;2.1;;;1.2;;
60865;SDS011;46701;51.558;-0.448;2022-07-23T06:03:15;2.4;;;1.2;;
60865;SDS011;46701;51.558;-0.448;2022-07-23T06:06:16;2.5;;;1.2;;
60865;SDS011;46701;51.558;-0.448;2022-07-23T06:09:17;2.2;;;1.3;;
60865;SDS011;46701;51.558;-0.448;2022-07-23T06:11:18;3.9;;;1.3;;
60865;SDS011;46701;51.558;-0.448;2022-07-23T06:14:19;2.5;;;1.1;;
60865;SDS011;46701;51.558;-0.448;2022-07-23T06:17:20;2.4;;;1.2;;
60865;SDS011;46701;51.558;-0.448;2022-07-23T06:20:21;3.1;;;1.2;;
60865;SDS011;46701;51.558;-0.448;2022-07-23T06:23:22;2.5;;;1.3;;
60865;SDS011;46701;51.558;-0.448;2022-07-23T06:26:23;2;;;1.2;;
60865;SDS011;46701;51.558;-0.448;2022-07-23T06:29:24;2.9;;;1.4;;
60865;SDS011;46701;51.558;-0.448;2022-07-23T06:32:25;2.4;;;1.2;;
60865;SDS011;46701;51.558;-0.448;2022-07-23T06:35:26;2.5;;;1.4;;
60865;SDS011;46701;51.558;-0.448;2022-07-23T06:38:27;2.4;;;1.4;;
60865;SDS011;46701;51.558;-0.448;2022-07-23T06:41:28;3.5;;;1.4;;
60865;SDS011;46701;51.558;-0.448;2022-07-23T06:44:29;5.8;;;2.2;;
60865;SDS011;46701;51.558;-0.448;2022-07-23T06:47:30;8.6;;;4.4;;
60865;SDS011;46701;51.558;-0.448;2022-07-23T06:50:31;8.7;;;5.4;;
60865;SDS011;46701;51.558;-0.448;2022-07-23T06:53:32;10.8;;;6;;
60865;SDS011;46701;51.558;-0.448;2022-07-23T06:56:33;10.7;;;6.5;;
60865;SDS011;46701;51.558;-0.448;2022-07-23T06:59:33;9.9;;;5.9;;
60865;SDS011;46701;51.558;-0.448;2022-07-23T07:02:35;9.2;;;5.9;;
60865;SDS011;46701;51.558;-0.448;2022-07-23T07:05:36;10.5;;;5.7;;
60865;SDS011;46701;51.558;-0.448;2022-07-23T07:08:37;11.2;;;5.5;;
60865;SDS011;46701;51.558;-0.448;2022-07-23T07:11:38;10.8;;;5.6;;
60865;SDS011;46701;51.558;-0.448;2022-07-23T07:14:39;10.8;;;5.6;;
60865;SDS011;46701;51.558;-0.448;2022-07-23T07:17:40;10.2;;;5.4;;
60865;SDS011;46701;51.558;-0.448;2022-07-23T07:20:41;8.2;;;5.6;;
60865;SDS011;46701;51.558;-0.448;2022-07-23T07:23:42;10.2;;;5.4;;
60865;SDS011;46701;51.558;-0.448;2022-07-23T07:26:42;12.2;;;5.6;;
60865;SDS011;46701;51.558;-0.448;2022-07-23T07:29:44;10.4;;;5.2;;
60865;SDS011;46701;51.558;-0.448;2022-07-23T07:32:45;10;;;5;;
60865;SDS011;46701;51.558;-0.448;2022-07-23T07:35:45;11.8;;;5.5;;
60865;SDS011;46701;51.558;-0.448;2022-07-23T07:38:46;11;;;5;;
60865;SDS011;46701;51.558;-0.448;2022-07-23T07:41:48;9;;;4.9;;
60865;SDS011;46701;51.558;-0.448;2022-07-23T07:44:48;9.8;;;5.2;;
60865;SDS011;46701;51.558;-0.448;2022-07-23T07:47:50;9.9;;;5.2;;
60865;SDS011;46701;51.558;-0.448;2022-07-23T07:50:50;9.9;;;5;;
60865;SDS011;46701;51.558;-0.448;2022-07-23T07:53:51;11.6;;;5.2;;
60865;SDS011;46701;51.558;-0.448;2022-07-23T07:56:53;9.8;;;5.4;;
60865;SDS011;46701;51.558;-0.448;2022-07-23T07:59:54;10.7;;;5;;
60865;SDS011;46701;51.558;-0.448;2022-07-23T08:02:55;7.9;;;4.7;;
60865;SDS011;46701;51.558;-0.448;2022-07-23T08:05:55;6.9;;;4.4;;
60865;SDS011;46701;51.558;-0.448;2022-07-23T08:07:56;8.9;;;4.8;;
60865;SDS011;46701;51.558;-0.448;2022-07-23T08:10:57;8.7;;;4.5;;
60865;SDS011;46701;51.558;-0.448;2022-07-23T08:13:58;9.1;;;4.3;;
60865;SDS011;46701;51.558;-0.448;2022-07-23T08:16:59;8.4;;;4.1;;
60865;SDS011;46701;51.558;-0.448;2022-07-23T08:20:00;10.2;;;4.4;;
60865;SDS011;46701;51.558;-0.448;2022-07-23T08:23:03;9.1;;;4.4;;
60865;SDS011;46701;51.558;-0.448;2022-07-23T08:26:02;6.5;;;3.4;;
60865;SDS011;46701;51.558;-0.448;2022-07-23T08:29:03;9.7;;;3.9;;
60865;SDS011;46701;51.558;-0.448;2022-07-23T08:32:04;7.6;;;3.2;;
60865;SDS011;46701;51.558;-0.448;2022-07-23T08:35:05;7.8;;;3.4;;
60865;SDS011;46701;51.558;-0.448;2022-07-23T08:38:06;5.9;;;3.1;;
60865;SDS011;46701;51.558;-0.448;2022-07-23T08:41:07;6.5;;;3.2;;
60865;SDS011;46701;51.558;-0.448;2022-07-23T08:44:08;7.3;;;3.6;;
60865;SDS011;46701;51.558;-0.448;2022-07-23T08:47:09;7.2;;;3.4;;
60865;SDS011;46701;51.558;-0.448;2022-07-23T08:50:10;5.6;;;2.6;;
60865;SDS011;46701;51.558;-0.448;2022-07-23T08:53:11;6.9;;;2.8;;
60865;SDS011;46701;51.558;-0.448;2022-07-23T08:56:12;8.1;;;2.8;;
60865;SDS011;46701;51.558;-0.448;2022-07-23T08:59:13;6;;;3;;
60865;SDS011;46701;51.558;-0.448;2022-07-23T09:02:14;5.9;;;2.8;;
60865;SDS011;46701;51.558;-0.448;2022-07-23T09:05:15;7.3;;;3;;
60865;SDS011;46701;51.558;-0.448;2022-07-23T09:08:17;5.8;;;2.8;;
60865;SDS011;46701;51.558;-0.448;2022-07-23T09:11:17;8.7;;;2.9;;
60865;SDS011;46701;51.558;-0.448;2022-07-23T09:14:18;5.7;;;2.4;;
60865;SDS011;46701;51.558;-0.448;2022-07-23T09:14:47;5.7;;;2.4;;
60865;SDS011;46701;51.558;-0.448;2022-07-23T09:17:19;6.5;;;2.4;;
60865;SDS011;46701;51.558;-0.448;2022-07-23T09:20:20;4.2;;;2.5;;
60865;SDS011;46701;51.558;-0.448;2022-07-23T09:23:23;4.1;;;2.1;;
60865;SDS011;46701;51.558;-0.448;2022-07-23T09:24:07;4.1;;;2.1;;
60865;SDS011;46701;51.558;-0.448;2022-07-23T09:26:23;5;;;2.1;;
60865;SDS011;46701;51.558;-0.448;2022-07-23T09:29:24;4.6;;;1.8;;
60865;SDS011;46701;51.558;-0.448;2022-07-23T09:32:24;4.7;;;1.8;;
60865;SDS011;46701;51.558;-0.448;2022-07-23T09:35:26;4.1;;;1.8;;
60865;SDS011;46701;51.558;-0.448;2022-07-23T09:35:49;4.1;;;1.8;;
60865;SDS011;46701;51.558;-0.448;2022-07-23T09:38:26;3.7;;;1.7;;
60865;SDS011;46701;51.558;-0.448;2022-07-23T09:41:29;3.5;;;1.8;;
60865;SDS011;46701;51.558;-0.448;2022-07-23T09:41:42;3.5;;;1.8;;
60865;SDS011;46701;51.558;-0.448;2022-07-23T09:44:28;4.2;;;1.8;;
60865;SDS011;46701;51.558;-0.448;2022-07-23T09:47:30;3.8;;;1.7;;
60865;SDS011;46701;51.558;-0.448;2022-07-23T09:50:30;4.9;;;1.8;;
60865;SDS011;46701;51.558;-0.448;2022-07-23T09:53:31;3.6;;;1.7;;
60865;SDS011;46701;51.558;-0.448;2022-07-23T09:56:32;4;;;1.7;;
60865;SDS011;46701;51.558;-0.448;2022-07-23T09:59:34;3.9;;;1.8;;
60865;SDS011;46701;51.558;-0.448;2022-07-23T10:01:33;3.6;;;1.7;;
60865;SDS011;46701;51.558;-0.448;2022-07-23T10:04:35;5.5;;;1.6;;
60865;SDS011;46701;51.558;-0.448;2022-07-23T10:07:36;4.5;;;1.7;;
60865;SDS011;46701;51.558;-0.448;2022-07-23T10:10:37;3.1;;;1.5;;
60865;SDS011;46701;51.558;-0.448;2022-07-23T10:13:38;2.1;;;1.2;;
60865;SDS011;46701;51.558;-0.448;2022-07-23T10:16:38;3.6;;;1.4;;
60865;SDS011;46701;51.558;-0.448;2022-07-23T10:19:40;3.8;;;1.6;;
60865;SDS011;46701;51.558;-0.448;2022-07-23T10:22:42;5.1;;;1.7;;
60865;SDS011;46701;51.558;-0.448;2022-07-23T10:25:44;3.6;;;1.5;;
60865;SDS011;46701;51.558;-0.448;2022-07-23T10:28:53;3.8;;;1.6;;
60865;SDS011;46701;51.558;-0.448;2022-07-23T10:29:41;3.8;;;1.6;;
60865;SDS011;46701;51.558;-0.448;2022-07-23T10:31:47;2.7;;;1.6;;
60865;SDS011;46701;51.558;-0.448;2022-07-23T10:32:16;2.7;;;1.6;;
60865;SDS011;46701;51.558;-0.448;2022-07-23T10:32:20;2.7;;;1.6;;
60865;SDS011;46701;51.558;-0.448;2022-07-23T10:32:26;2.7;;;1.6;;
60865;SDS011;46701;51.558;-0.448;2022-07-23T10:32:30;2.7;;;1.6;;
60865;SDS011;46701;51.558;-0.448;2022-07-23T10:32:36;2.7;;;1.6;;
60865;SDS011;46701;51.558;-0.448;2022-07-23T10:32:40;2.7;;;1.6;;
60865;SDS011;46701;51.558;-0.448;2022-07-23T10:32:44;2.7;;;1.6;;
60865;SDS011;46701;51.558;-0.448;2022-07-23T10:34:50;5.9;;;1.5;;
60865;SDS011;46701;51.558;-0.448;2022-07-23T10:35:12;5.9;;;1.5;;
60865;SDS011;46701;51.558;-0.448;2022-07-23T10:35:18;5.9;;;1.5;;
60865;SDS011;46701;51.558;-0.448;2022-07-23T10:37:47;3.4;;;1.5;;
60865;SDS011;46701;51.558;-0.448;2022-07-23T10:40:55;4.9;;;1.9;;
60865;SDS011;46701;51.558;-0.448;2022-07-23T10:41:09;4.9;;;1.9;;
60865;SDS011;46701;51.558;-0.448;2022-07-23T10:44:00;3.3;;;1.7;;
60865;SDS011;46701;51.558;-0.448;2022-07-23T10:44:40;3.3;;;1.7;;
60865;SDS011;46701;51.558;-0.448;2022-07-23T10:46:57;3.4;;;1.8;;
60865;SDS011;46701;51.558;-0.448;2022-07-23T10:47:02;3.4;;;1.8;;
60865;SDS011;46701;51.558;-0.448;2022-07-23T10:49:49;4.2;;;1.8;;
60865;SDS011;46701;51.558;-0.448;2022-07-23T10:54:04;3.5;;;1.6;;
60865;SDS011;46701;51.558;-0.448;2022-07-23T10:54:20;3.5;;;1.6;;
60865;SDS011;46701;51.558;-0.448;2022-07-23T10:54:20;3.5;;;1.6;;
60865;SDS011;46701;51.558;-0.448;2022-07-23T10:54:20;3.5;;;1.6;;
60865;SDS011;46701;51.558;-0.448;2022-07-23T10:55:52;3.3;;;1.7;;
60865;SDS011;46701;51.558;-0.448;2022-07-23T10:58:52;3.4;;;1.6;;
60865;SDS011;46701;51.558;-0.448;2022-07-23T10:59:03;3.4;;;1.6;;
60865;SDS011;46701;51.558;-0.448;2022-07-23T11:01:53;4.1;;;1.9;;
60865;SDS011;46701;51.558;-0.448;2022-07-23T11:02:34;4.1;;;1.9;;
60865;SDS011;46701;51.558;-0.448;2022-07-23T11:04:58;4.5;;;2;;
60865;SDS011;46701;51.558;-0.448;2022-07-23T11:08:12;4.6;;;1.7;;
60865;SDS011;46701;51.558;-0.448;2022-07-23T11:08:25;4.6;;;1.7;;
60865;SDS011;46701;51.558;-0.448;2022-07-23T11:11:07;4.5;;;1.9;;
60865;SDS011;46701;51.558;-0.448;2022-07-23T11:12:31;4.5;;;1.9;;
60865;SDS011;46701;51.558;-0.448;2022-07-23T11:12:33;4.5;;;1.9;;
60865;SDS011;46701;51.558;-0.448;2022-07-23T11:12:33;4.5;;;1.9;;
60865;SDS011;46701;51.558;-0.448;2022-07-23T11:12:34;4.5;;;1.9;;
60865;SDS011;46701;51.558;-0.448;2022-07-23T11:13:57;3.1;;;1.6;;
60865;SDS011;46701;51.558;-0.448;2022-07-23T11:16:59;3;;;1.7;;
60865;SDS011;46701;51.558;-0.448;2022-07-23T11:20:45;4.3;;;1.6;;
60865;SDS011;46701;51.558;-0.448;2022-07-23T11:23:00;2.9;;;1.7;;
60865;SDS011;46701;51.558;-0.448;2022-07-23T11:26:01;3.8;;;1.7;;
60865;SDS011;46701;51.558;-0.448;2022-07-23T11:29:23;3.8;;;1.7;;
60865;SDS011;46701;51.558;-0.448;2022-07-23T11:30:05;3.8;;;1.7;;
60865;SDS011;46701;51.558;-0.448;2022-07-23T11:32:04;3.6;;;1.6;;
60865;SDS011;46701;51.558;-0.448;2022-07-23T11:36:01;3.2;;;1.6;;
60865;SDS011;46701;51.558;-0.448;2022-07-23T11:38:06;4.8;;;1.7;;
60865;SDS011;46701;51.558;-0.448;2022-07-23T11:41:06;3.4;;;1.8;;
60865;SDS011;46701;51.558;-0.448;2022-07-23T11:44:23;5;;;1.6;;
60865;SDS011;46701;51.558;-0.448;2022-07-23T11:45:22;5;;;1.6;;
60865;SDS011;46701;51.558;-0.448;2022-07-23T11:47:10;3.4;;;1.6;;
60865;SDS011;46701;51.558;-0.448;2022-07-23T11:50:09;3.4;;;1.5;;
60865;SDS011;46701;51.558;-0.448;2022-07-23T11:53:10;3.2;;;1.4;;
60865;SDS011;46701;51.558;-0.448;2022-07-23T11:56:12;4.9;;;1.6;;
60865;SDS011;46701;51.558;-0.448;2022-07-23T11:58:12;2.4;;;1.2;;
60865;SDS011;46701;51.558;-0.448;2022-07-23T12:01:13;3.8;;;1.3;;
60865;SDS011;46701;51.558;-0.448;2022-07-23T12:04:14;2.9;;;1.4;;
60865;SDS011;46701;51.558;-0.448;2022-07-23T12:07:24;2.2;;;1.3;;
60865;SDS011;46701;51.558;-0.448;2022-07-23T12:07:35;2.2;;;1.3;;
60865;SDS011;46701;51.558;-0.448;2022-07-23T12:10:17;2.9;;;1.3;;
60865;SDS011;46701;51.558;-0.448;2022-07-23T12:13:18;2;;;1;;
60865;SDS011;46701;51.558;-0.448;2022-07-23T12:16:18;2.7;;;1.3;;
60865;SDS011;46701;51.558;-0.448;2022-07-23T12:19:19;2.9;;;1.2;;
60865;SDS011;46701;51.558;-0.448;2022-07-23T12:22:20;2.6;;;1.4;;
60865;SDS011;46701;51.558;-0.448;2022-07-23T12:25:21;3.2;;;1.2;;
60865;SDS011;46701;51.558;-0.448;2022-07-23T12:28:26;2.1;;;1.1;;
60865;SDS011;46701;51.558;-0.448;2022-07-23T12:28:35;2.1;;;1.1;;
60865;SDS011;46701;51.558;-0.448;2022-07-23T12:31:25;2.5;;;1.3;;
60865;SDS011;46701;51.558;-0.448;2022-07-23T12:34:24;3.7;;;1;;
60865;SDS011;46701;51.558;-0.448;2022-07-23T12:37:26;2.2;;;1.2;;
60865;SDS011;46701;51.558;-0.448;2022-07-23T12:40:27;2.6;;;1;;
60865;SDS011;46701;51.558;-0.448;2022-07-23T12:43:28;3.3;;;1.1;;
60865;SDS011;46701;51.558;-0.448;2022-07-23T12:46:28;3.6;;;1.3;;
60865;SDS011;46701;51.558;-0.448;2022-07-23T12:47:16;3.6;;;1.3;;
60865;SDS011;46701;51.558;-0.448;2022-07-23T12:49:29;2.6;;;1.2;;
60865;SDS011;46701;51.558;-0.448;2022-07-23T12:52:30;3.5;;;1.3;;
60865;SDS011;46701;51.558;-0.448;2022-07-23T12:55:31;3.5;;;1.3;;
60865;SDS011;46701;51.558;-0.448;2022-07-23T12:58:41;6.1;;;1.4;;
60865;SDS011;46701;51.558;-0.448;2022-07-23T12:58:57;6.1;;;1.4;;
60865;SDS011;46701;51.558;-0.448;2022-07-23T13:01:33;4.5;;;1.2;;
60865;SDS011;46701;51.558;-0.448;2022-07-23T13:04:34;5.6;;;1.5;;
60865;SDS011;46701;51.558;-0.448;2022-07-23T13:07:35;3;;;1.5;;
60865;SDS011;46701;51.558;-0.448;2022-07-23T13:10:36;4.5;;;1.4;;
60865;SDS011;46701;51.558;-0.448;2022-07-23T13:13:37;2.8;;;1.2;;
60865;SDS011;46701;51.558;-0.448;2022-07-23T13:16:39;3;;;1.3;;
60865;SDS011;46701;51.558;-0.448;2022-07-23T13:19:39;2.3;;;1.3;;
60865;SDS011;46701;51.558;-0.448;2022-07-23T13:22:40;3.1;;;1.4;;
60865;SDS011;46701;51.558;-0.448;2022-07-23T13:25:41;3.5;;;1.6;;
60865;SDS011;46701;51.558;-0.448;2022-07-23T13:28:42;2.8;;;1.1;;
60865;SDS011;46701;51.558;-0.448;2022-07-23T13:31:43;2.4;;;1.4;;
60865;SDS011;46701;51.558;-0.448;2022-07-23T13:34:44;3;;;1.5;;
60865;SDS011;46701;51.558;-0.448;2022-07-23T13:37:45;4;;;1.4;;
60865;SDS011;46701;51.558;-0.448;2022-07-23T13:40:46;3.3;;;1.4;;
60865;SDS011;46701;51.558;-0.448;2022-07-23T13:43:49;4.7;;;1.6;;
60865;SDS011;46701;51.558;-0.448;2022-07-23T13:46:48;5.9;;;1.5;;
60865;SDS011;46701;51.558;-0.448;2022-07-23T13:49:49;2.6;;;1.4;;
60865;SDS011;46701;51.558;-0.448;2022-07-23T13:52:54;3.5;;;1.4;;
60865;SDS011;46701;51.558;-0.448;2022-07-23T13:53:48;3.5;;;1.4;;
60865;SDS011;46701;51.558;-0.448;2022-07-23T13:54:51;3.5;;;1.4;;
60865;SDS011;46701;51.558;-0.448;2022-07-23T13:57:51;2.1;;;1.5;;
60865;SDS011;46701;51.558;-0.448;2022-07-23T14:00:53;3.4;;;1.3;;
60865;SDS011;46701;51.558;-0.448;2022-07-23T14:03:53;3.2;;;1.5;;
60865;SDS011;46701;51.558;-0.448;2022-07-23T14:06:54;2.8;;;1.6;;
60865;SDS011;46701;51.558;-0.448;2022-07-23T14:09:55;3.1;;;1.5;;
60865;SDS011;46701;51.558;-0.448;2022-07-23T14:12:56;3;;;1.4;;
60865;SDS011;46701;51.558;-0.448;2022-07-23T14:15:57;4.2;;;1.7;;
60865;SDS011;46701;51.558;-0.448;2022-07-23T14:18:58;2;;;1.4;;
60865;SDS011;46701;51.558;-0.448;2022-07-23T14:21:59;2.7;;;1.5;;
60865;SDS011;46701;51.558;-0.448;2022-07-23T14:25:00;4.3;;;1.3;;
60865;SDS011;46701;51.558;-0.448;2022-07-23T14:28:02;4.5;;;1.6;;
60865;SDS011;46701;51.558;-0.448;2022-07-23T14:31:02;2.4;;;1.4;;
60865;SDS011;46701;51.558;-0.448;2022-07-23T14:34:03;3.7;;;1.6;;
60865;SDS011;46701;51.558;-0.448;2022-07-23T14:37:04;3.7;;;1.6;;
60865;SDS011;46701;51.558;-0.448;2022-07-23T14:40:06;2.8;;;1.5;;
60865;SDS011;46701;51.558;-0.448;2022-07-23T14:43:06;2.2;;;1.4;;
60865;SDS011;46701;51.558;-0.448;2022-07-23T14:46:07;1.8;;;1.4;;
60865;SDS011;46701;51.558;-0.448;2022-07-23T14:49:08;1.8;;;1.3;;
60865;SDS011;46701;51.558;-0.448;2022-07-23T14:52:09;3.6;;;1.3;;
60865;SDS011;46701;51.558;-0.448;2022-07-23T14:55:10;2.9;;;1.4;;
60865;SDS011;46701;51.558;-0.448;2022-07-23T14:58:11;3.1;;;1.2;;
60865;SDS011;46701;51.558;-0.448;2022-07-23T15:01:12;3.7;;;1.4;;
60865;SDS011;46701;51.558;-0.448;2022-07-23T15:04:14;3.4;;;1.3;;
60865;SDS011;46701;51.558;-0.448;2022-07-23T15:07:14;4.3;;;1.6;;
60865;SDS011;46701;51.558;-0.448;2022-07-23T15:10:16;1.8;;;1.1;;
60865;SDS011;46701;51.558;-0.448;2022-07-23T15:13:16;3.1;;;1.4;;
60865;SDS011;46701;51.558;-0.448;2022-07-23T15:16:17;5.8;;;1.5;;
60865;SDS011;46701;51.558;-0.448;2022-07-23T15:19:20;5.6;;;1.5;;
60865;SDS011;46701;51.558;-0.448;2022-07-23T15:22:35;4.7;;;1.4;;
60865;SDS011;46701;51.558;-0.448;2022-07-23T15:25:21;6.8;;;1.4;;
60865;SDS011;46701;51.558;-0.448;2022-07-23T15:28:22;4.5;;;1.5;;
60865;SDS011;46701;51.558;-0.448;2022-07-23T15:31:22;4.3;;;1.5;;
60865;SDS011;46701;51.558;-0.448;2022-07-23T15:34:23;5.1;;;1.3;;
60865;SDS011;46701;51.558;-0.448;2022-07-23T15:37:24;5.8;;;1.5;;
60865;SDS011;46701;51.558;-0.448;2022-07-23T15:40:28;5;;;1.6;;
60865;SDS011;46701;51.558;-0.448;2022-07-23T15:43:26;3.8;;;1.3;;
60865;SDS011;46701;51.558;-0.448;2022-07-23T15:46:28;2.5;;;1.3;;
60865;SDS011;46701;51.558;-0.448;2022-07-23T15:49:28;3.3;;;1.2;;
60865;SDS011;46701;51.558;-0.448;2022-07-23T15:51:29;2.7;;;1.4;;
60865;SDS011;46701;51.558;-0.448;2022-07-23T15:54:30;4.4;;;1.4;;
60865;SDS011;46701;51.558;-0.448;2022-07-23T15:57:31;3.7;;;1.2;;
60865;SDS011;46701;51.558;-0.448;2022-07-23T16:00:32;3.5;;;1.2;;
60865;SDS011;46701;51.558;-0.448;2022-07-23T16:03:33;3.9;;;1.3;;
60865;SDS011;46701;51.558;-0.448;2022-07-23T16:06:34;2.4;;;1.2;;
60865;SDS011;46701;51.558;-0.448;2022-07-23T16:09:35;2.4;;;1.1;;
60865;SDS011;46701;51.558;-0.448;2022-07-23T16:12:36;11.3;;;1.5;;
60865;SDS011;46701;51.558;-0.448;2022-07-23T16:15:37;7.2;;;1.3;;
60865;SDS011;46701;51.558;-0.448;2022-07-23T16:18:38;5;;;1.2;;
60865;SDS011;46701;51.558;-0.448;2022-07-23T16:21:39;4.7;;;1.3;;
60865;SDS011;46701;51.558;-0.448;2022-07-23T16:24:40;8.9;;;1.2;;
60865;SDS011;46701;51.558;-0.448;2022-07-23T16:27:41;4.1;;;1.4;;
60865;SDS011;46701;51.558;-0.448;2022-07-23T16:30:42;3.3;;;1.4;;
60865;SDS011;46701;51.558;-0.448;2022-07-23T16:33:43;3.6;;;1.5;;
60865;SDS011;46701;51.558;-0.448;2022-07-23T16:36:44;7.1;;;1.4;;
60865;SDS011;46701;51.558;-0.448;2022-07-23T16:39:45;3.7;;;1.5;;